New Salisbury, Indiana
Current Conditions -  °F | °C
As of 1:56 AM on Saturday 20 Dec 2014 (Local Time) from KSDF Reporting Station
Overcast Overcast  
Wind Chill: 30°   Ceiling: 6000
Heat Index: 30°   Visibility: 9mi
Dew Point: 22°   Wind: 3mph
Humidity: 72%   Direction: 100°E
Pressure: 30.27"   Gusts: NA
Location:  38.31°N, 86.09°W
Report Text: KSDF 200656Z 10003KT 9SM OVC060 M01/M06 A3027 RMK AO2 SLP255 T10111056
Loading
Personal Weather Stations






























Interactive Weather Map New forecast layout! Learn more

10-Day Weather Forecast

Advertisements
Track Severe Weather on mobile